sensor_id;sensor_type;location;lat;lon;timestamp;P1;durP1;ratioP1;P2;durP2;ratioP2
11064;SDS011;5585;52.530;7.320;2023-10-09T00:01:00;3.33;;;1.50;;
11064;SDS011;5585;52.530;7.320;2023-10-09T00:03:39;3.75;;;1.60;;
11064;SDS011;5585;52.530;7.320;2023-10-09T00:06:07;3.22;;;1.60;;
11064;SDS011;5585;52.530;7.320;2023-10-09T00:08:35;2.83;;;1.40;;
11064;SDS011;5585;52.530;7.320;2023-10-09T00:11:04;2.40;;;1.58;;
11064;SDS011;5585;52.530;7.320;2023-10-09T00:13:41;2.60;;;1.40;;
11064;SDS011;5585;52.530;7.320;2023-10-09T00:16:14;3.75;;;1.60;;
11064;SDS011;5585;52.530;7.320;2023-10-09T00:18:50;3.65;;;1.60;;
11064;SDS011;5585;52.530;7.320;2023-10-09T00:21:16;2.92;;;1.77;;
11064;SDS011;5585;52.530;7.320;2023-10-09T00:23:45;3.03;;;1.60;;
11064;SDS011;5585;52.530;7.320;2023-10-09T00:26:17;3.28;;;1.75;;
11064;SDS011;5585;52.530;7.320;2023-10-09T00:28:44;2.53;;;1.77;;
11064;SDS011;5585;52.530;7.320;2023-10-09T00:31:12;3.17;;;2.08;;
11064;SDS011;5585;52.530;7.320;2023-10-09T00:33:41;4.03;;;2.10;;
11064;SDS011;5585;52.530;7.320;2023-10-09T00:36:09;4.30;;;2.20;;
11064;SDS011;5585;52.530;7.320;2023-10-09T00:38:37;3.70;;;2.15;;
11064;SDS011;5585;52.530;7.320;2023-10-09T00:41:10;5.95;;;2.75;;
11064;SDS011;5585;52.530;7.320;2023-10-09T00:43:38;4.80;;;2.30;;
11064;SDS011;5585;52.530;7.320;2023-10-09T00:46:08;4.20;;;2.47;;
11064;SDS011;5585;52.530;7.320;2023-10-09T00:48:37;5.78;;;3.13;;
11064;SDS011;5585;52.530;7.320;2023-10-09T00:51:06;4.05;;;3.25;;
11064;SDS011;5585;52.530;7.320;2023-10-09T00:53:42;5.05;;;3.13;;
11064;SDS011;5585;52.530;7.320;2023-10-09T00:56:09;4.75;;;2.97;;
11064;SDS011;5585;52.530;7.320;2023-10-09T00:58:40;5.07;;;3.30;;
11064;SDS011;5585;52.530;7.320;2023-10-09T01:01:08;5.05;;;3.20;;
11064;SDS011;5585;52.530;7.320;2023-10-09T01:03:40;6.13;;;3.20;;
11064;SDS011;5585;52.530;7.320;2023-10-09T01:06:07;5.55;;;3.35;;
11064;SDS011;5585;52.530;7.320;2023-10-09T01:08:43;7.15;;;3.70;;
11064;SDS011;5585;52.530;7.320;2023-10-09T01:11:21;4.27;;;2.90;;
11064;SDS011;5585;52.530;7.320;2023-10-09T01:13:49;5.15;;;3.20;;
11064;SDS011;5585;52.530;7.320;2023-10-09T01:16:21;5.57;;;3.22;;
11064;SDS011;5585;52.530;7.320;2023-10-09T01:18:48;4.22;;;3.25;;
11064;SDS011;5585;52.530;7.320;2023-10-09T01:21:15;4.78;;;3.45;;
11064;SDS011;5585;52.530;7.320;2023-10-09T01:23:43;5.78;;;2.95;;
11064;SDS011;5585;52.530;7.320;2023-10-09T01:26:28;5.65;;;3.20;;
11064;SDS011;5585;52.530;7.320;2023-10-09T01:28:57;4.90;;;3.60;;
11064;SDS011;5585;52.530;7.320;2023-10-09T01:31:25;6.07;;;3.58;;
11064;SDS011;5585;52.530;7.320;2023-10-09T01:33:52;8.07;;;4.28;;
11064;SDS011;5585;52.530;7.320;2023-10-09T01:36:20;7.47;;;4.23;;
11064;SDS011;5585;52.530;7.320;2023-10-09T01:38:58;7.30;;;3.97;;
11064;SDS011;5585;52.530;7.320;2023-10-09T01:41:24;5.18;;;4.53;;
11064;SDS011;5585;52.530;7.320;2023-10-09T01:43:50;6.77;;;4.07;;
11064;SDS011;5585;52.530;7.320;2023-10-09T01:46:26;7.47;;;4.20;;
11064;SDS011;5585;52.530;7.320;2023-10-09T01:48:52;8.13;;;4.95;;
11064;SDS011;5585;52.530;7.320;2023-10-09T01:51:19;10.57;;;5.47;;
11064;SDS011;5585;52.530;7.320;2023-10-09T01:53:46;10.10;;;6.17;;
11064;SDS011;5585;52.530;7.320;2023-10-09T01:56:20;8.52;;;5.55;;
11064;SDS011;5585;52.530;7.320;2023-10-09T01:58:47;7.97;;;5.72;;
11064;SDS011;5585;52.530;7.320;2023-10-09T02:01:15;7.60;;;5.43;;
11064;SDS011;5585;52.530;7.320;2023-10-09T02:03:42;9.77;;;5.32;;
11064;SDS011;5585;52.530;7.320;2023-10-09T02:06:09;7.53;;;5.53;;
11064;SDS011;5585;52.530;7.320;2023-10-09T02:08:51;8.88;;;5.80;;
11064;SDS011;5585;52.530;7.320;2023-10-09T02:11:18;8.80;;;6.38;;
11064;SDS011;5585;52.530;7.320;2023-10-09T02:13:51;8.60;;;6.32;;
11064;SDS011;5585;52.530;7.320;2023-10-09T02:16:26;9.90;;;6.72;;
11064;SDS011;5585;52.530;7.320;2023-10-09T02:18:54;12.50;;;7.27;;
11064;SDS011;5585;52.530;7.320;2023-10-09T02:21:21;12.27;;;7.22;;
11064;SDS011;5585;52.530;7.320;2023-10-09T02:24:05;10.55;;;6.47;;
11064;SDS011;5585;52.530;7.320;2023-10-09T02:26:37;10.35;;;7.03;;
11064;SDS011;5585;52.530;7.320;2023-10-09T02:29:33;10.47;;;7.10;;
11064;SDS011;5585;52.530;7.320;2023-10-09T02:32:00;9.85;;;7.20;;
11064;SDS011;5585;52.530;7.320;2023-10-09T02:34:38;10.93;;;7.60;;
11064;SDS011;5585;52.530;7.320;2023-10-09T02:37:05;10.43;;;7.57;;
11064;SDS011;5585;52.530;7.320;2023-10-09T02:39:36;11.73;;;7.72;;
11064;SDS011;5585;52.530;7.320;2023-10-09T02:42:08;9.95;;;7.63;;
11064;SDS011;5585;52.530;7.320;2023-10-09T02:44:46;9.50;;;7.40;;
11064;SDS011;5585;52.530;7.320;2023-10-09T02:47:15;12.82;;;7.70;;
11064;SDS011;5585;52.530;7.320;2023-10-09T02:49:45;11.60;;;8.82;;
11064;SDS011;5585;52.530;7.320;2023-10-09T02:52:13;11.32;;;7.80;;
11064;SDS011;5585;52.530;7.320;2023-10-09T02:54:43;10.35;;;7.20;;
11064;SDS011;5585;52.530;7.320;2023-10-09T02:57:12;12.15;;;8.32;;
11064;SDS011;5585;52.530;7.320;2023-10-09T02:59:48;12.48;;;8.75;;
11064;SDS011;5585;52.530;7.320;2023-10-09T03:02:16;12.80;;;9.07;;
11064;SDS011;5585;52.530;7.320;2023-10-09T03:04:43;14.48;;;9.02;;
11064;SDS011;5585;52.530;7.320;2023-10-09T03:07:09;11.32;;;8.60;;
11064;SDS011;5585;52.530;7.320;2023-10-09T03:09:38;14.25;;;9.48;;
11064;SDS011;5585;52.530;7.320;2023-10-09T03:12:06;14.10;;;8.68;;
11064;SDS011;5585;52.530;7.320;2023-10-09T03:14:35;11.38;;;8.68;;
11064;SDS011;5585;52.530;7.320;2023-10-09T03:17:05;12.48;;;9.32;;
11064;SDS011;5585;52.530;7.320;2023-10-09T03:19:32;14.70;;;9.93;;
11064;SDS011;5585;52.530;7.320;2023-10-09T03:22:02;14.90;;;9.90;;
11064;SDS011;5585;52.530;7.320;2023-10-09T03:24:28;11.90;;;9.55;;
11064;SDS011;5585;52.530;7.320;2023-10-09T03:26:56;14.98;;;10.32;;
11064;SDS011;5585;52.530;7.320;2023-10-09T03:29:23;13.95;;;10.27;;
11064;SDS011;5585;52.530;7.320;2023-10-09T03:31:49;13.77;;;10.13;;
11064;SDS011;5585;52.530;7.320;2023-10-09T03:34:18;12.77;;;9.57;;
11064;SDS011;5585;52.530;7.320;2023-10-09T03:36:45;15.70;;;10.15;;
11064;SDS011;5585;52.530;7.320;2023-10-09T03:39:16;15.23;;;10.40;;
11064;SDS011;5585;52.530;7.320;2023-10-09T03:41:50;14.63;;;11.00;;
11064;SDS011;5585;52.530;7.320;2023-10-09T03:44:16;14.27;;;11.00;;
11064;SDS011;5585;52.530;7.320;2023-10-09T03:46:44;15.27;;;11.65;;
11064;SDS011;5585;52.530;7.320;2023-10-09T03:49:10;15.07;;;11.07;;
11064;SDS011;5585;52.530;7.320;2023-10-09T03:51:40;17.08;;;12.48;;
11064;SDS011;5585;52.530;7.320;2023-10-09T03:54:07;16.00;;;11.25;;
11064;SDS011;5585;52.530;7.320;2023-10-09T03:56:34;15.95;;;11.35;;
11064;SDS011;5585;52.530;7.320;2023-10-09T03:59:01;18.02;;;12.90;;
11064;SDS011;5585;52.530;7.320;2023-10-09T04:01:29;18.27;;;13.10;;
11064;SDS011;5585;52.530;7.320;2023-10-09T04:04:03;17.52;;;12.20;;
11064;SDS011;5585;52.530;7.320;2023-10-09T04:06:35;18.95;;;13.13;;
11064;SDS011;5585;52.530;7.320;2023-10-09T04:09:05;17.90;;;13.45;;
11064;SDS011;5585;52.530;7.320;2023-10-09T04:11:52;18.65;;;13.95;;
11064;SDS011;5585;52.530;7.320;2023-10-09T04:14:31;18.90;;;14.35;;
11064;SDS011;5585;52.530;7.320;2023-10-09T04:16:58;18.58;;;14.05;;
11064;SDS011;5585;52.530;7.320;2023-10-09T04:19:31;18.80;;;13.55;;
11064;SDS011;5585;52.530;7.320;2023-10-09T04:22:04;21.92;;;16.17;;
11064;SDS011;5585;52.530;7.320;2023-10-09T04:24:33;20.17;;;15.00;;
11064;SDS011;5585;52.530;7.320;2023-10-09T04:27:06;18.17;;;13.93;;
11064;SDS011;5585;52.530;7.320;2023-10-09T04:29:33;19.13;;;14.40;;
11064;SDS011;5585;52.530;7.320;2023-10-09T04:32:04;21.30;;;14.65;;
11064;SDS011;5585;52.530;7.320;2023-10-09T04:34:32;20.77;;;13.93;;
11064;SDS011;5585;52.530;7.320;2023-10-09T04:37:01;18.75;;;14.25;;
11064;SDS011;5585;52.530;7.320;2023-10-09T04:39:46;18.67;;;13.82;;
11064;SDS011;5585;52.530;7.320;2023-10-09T04:42:13;19.48;;;15.25;;
11064;SDS011;5585;52.530;7.320;2023-10-09T04:44:51;19.92;;;14.73;;
11064;SDS011;5585;52.530;7.320;2023-10-09T04:47:44;20.83;;;15.10;;
11064;SDS011;5585;52.530;7.320;2023-10-09T04:50:23;18.02;;;13.32;;
11064;SDS011;5585;52.530;7.320;2023-10-09T04:53:07;19.77;;;14.82;;
11064;SDS011;5585;52.530;7.320;2023-10-09T04:55:48;20.27;;;15.43;;
11064;SDS011;5585;52.530;7.320;2023-10-09T04:58:23;18.50;;;14.30;;
11064;SDS011;5585;52.530;7.320;2023-10-09T05:00:52;23.08;;;16.10;;
11064;SDS011;5585;52.530;7.320;2023-10-09T05:03:40;19.23;;;13.98;;
11064;SDS011;5585;52.530;7.320;2023-10-09T05:06:09;20.73;;;15.80;;
11064;SDS011;5585;52.530;7.320;2023-10-09T05:09:07;21.92;;;14.88;;
11064;SDS011;5585;52.530;7.320;2023-10-09T05:11:35;21.23;;;14.90;;
11064;SDS011;5585;52.530;7.320;2023-10-09T05:14:16;19.77;;;14.63;;
11064;SDS011;5585;52.530;7.320;2023-10-09T05:16:42;20.52;;;15.32;;
11064;SDS011;5585;52.530;7.320;2023-10-09T05:19:20;21.50;;;14.93;;
11064;SDS011;5585;52.530;7.320;2023-10-09T05:22:06;20.85;;;15.35;;
11064;SDS011;5585;52.530;7.320;2023-10-09T05:24:35;22.35;;;15.18;;
11064;SDS011;5585;52.530;7.320;2023-10-09T05:27:13;20.70;;;15.15;;
11064;SDS011;5585;52.530;7.320;2023-10-09T05:30:06;21.77;;;15.45;;
11064;SDS011;5585;52.530;7.320;2023-10-09T05:32:49;23.35;;;14.73;;
11064;SDS011;5585;52.530;7.320;2023-10-09T05:35:20;22.52;;;15.65;;
11064;SDS011;5585;52.530;7.320;2023-10-09T05:37:55;21.15;;;14.85;;
11064;SDS011;5585;52.530;7.320;2023-10-09T05:40:26;20.42;;;14.50;;
11064;SDS011;5585;52.530;7.320;2023-10-09T05:42:57;21.63;;;15.07;;
11064;SDS011;5585;52.530;7.320;2023-10-09T05:45:24;19.80;;;14.85;;
11064;SDS011;5585;52.530;7.320;2023-10-09T05:48:08;21.75;;;15.48;;
11064;SDS011;5585;52.530;7.320;2023-10-09T05:50:49;21.60;;;15.88;;
11064;SDS011;5585;52.530;7.320;2023-10-09T05:53:29;21.42;;;16.10;;
11064;SDS011;5585;52.530;7.320;2023-10-09T05:56:20;20.67;;;15.30;;
11064;SDS011;5585;52.530;7.320;2023-10-09T05:59:06;23.23;;;16.52;;
11064;SDS011;5585;52.530;7.320;2023-10-09T06:01:50;22.40;;;16.00;;
11064;SDS011;5585;52.530;7.320;2023-10-09T06:04:36;21.92;;;15.60;;
11064;SDS011;5585;52.530;7.320;2023-10-09T06:07:19;20.95;;;15.70;;
11064;SDS011;5585;52.530;7.320;2023-10-09T06:09:49;20.20;;;15.38;;
11064;SDS011;5585;52.530;7.320;2023-10-09T06:12:14;23.08;;;16.17;;
11064;SDS011;5585;52.530;7.320;2023-10-09T06:15:15;22.77;;;16.33;;
11064;SDS011;5585;52.530;7.320;2023-10-09T06:17:45;23.52;;;16.65;;
11064;SDS011;5585;52.530;7.320;2023-10-09T06:20:15;23.23;;;16.80;;
11064;SDS011;5585;52.530;7.320;2023-10-09T06:22:59;23.20;;;16.67;;
11064;SDS011;5585;52.530;7.320;2023-10-09T06:25:40;19.75;;;14.80;;
11064;SDS011;5585;52.530;7.320;2023-10-09T06:28:16;21.33;;;15.52;;
11064;SDS011;5585;52.530;7.320;2023-10-09T06:30:45;22.00;;;15.50;;
11064;SDS011;5585;52.530;7.320;2023-10-09T06:33:12;22.75;;;15.80;;
11064;SDS011;5585;52.530;7.320;2023-10-09T06:35:54;22.58;;;15.45;;
11064;SDS011;5585;52.530;7.320;2023-10-09T06:38:21;21.58;;;15.48;;
11064;SDS011;5585;52.530;7.320;2023-10-09T06:40:48;21.15;;;16.08;;
11064;SDS011;5585;52.530;7.320;2023-10-09T06:43:32;26.13;;;16.90;;
11064;SDS011;5585;52.530;7.320;2023-10-09T06:46:03;22.27;;;14.02;;
11064;SDS011;5585;52.530;7.320;2023-10-09T06:48:47;25.35;;;16.33;;
11064;SDS011;5585;52.530;7.320;2023-10-09T06:51:22;21.42;;;15.13;;
11064;SDS011;5585;52.530;7.320;2023-10-09T06:54:06;23.92;;;15.45;;
11064;SDS011;5585;52.530;7.320;2023-10-09T06:56:34;24.20;;;17.65;;
11064;SDS011;5585;52.530;7.320;2023-10-09T06:59:18;23.75;;;16.20;;
11064;SDS011;5585;52.530;7.320;2023-10-09T07:01:51;21.98;;;16.60;;
11064;SDS011;5585;52.530;7.320;2023-10-09T07:04:31;22.80;;;15.82;;
11064;SDS011;5585;52.530;7.320;2023-10-09T07:07:11;19.05;;;14.93;;
11064;SDS011;5585;52.530;7.320;2023-10-09T07:09:41;22.17;;;16.42;;
11064;SDS011;5585;52.530;7.320;2023-10-09T07:12:31;20.30;;;16.35;;
11064;SDS011;5585;52.530;7.320;2023-10-09T07:14:59;22.52;;;15.98;;
11064;SDS011;5585;52.530;7.320;2023-10-09T07:17:50;21.52;;;15.02;;
11064;SDS011;5585;52.530;7.320;2023-10-09T07:20:20;19.55;;;14.90;;
11064;SDS011;5585;52.530;7.320;2023-10-09T07:23:10;23.75;;;16.10;;
11064;SDS011;5585;52.530;7.320;2023-10-09T07:25:40;19.80;;;14.98;;
11064;SDS011;5585;52.530;7.320;2023-10-09T07:28:23;21.58;;;14.48;;
11064;SDS011;5585;52.530;7.320;2023-10-09T07:31:01;21.75;;;15.82;;
11064;SDS011;5585;52.530;7.320;2023-10-09T07:33:29;20.75;;;15.55;;
11064;SDS011;5585;52.530;7.320;2023-10-09T07:36:17;23.83;;;16.58;;
11064;SDS011;5585;52.530;7.320;2023-10-09T07:38:54;21.02;;;15.57;;
11064;SDS011;5585;52.530;7.320;2023-10-09T07:41:21;22.45;;;16.33;;
11064;SDS011;5585;52.530;7.320;2023-10-09T07:44:02;24.92;;;15.77;;
11064;SDS011;5585;52.530;7.320;2023-10-09T07:46:44;22.20;;;15.27;;
11064;SDS011;5585;52.530;7.320;2023-10-09T07:49:18;26.60;;;19.08;;
11064;SDS011;5585;52.530;7.320;2023-10-09T07:51:50;18.98;;;15.13;;
11064;SDS011;5585;52.530;7.320;2023-10-09T07:54:17;20.25;;;14.45;;
11064;SDS011;5585;52.530;7.320;2023-10-09T07:56:57;19.35;;;14.90;;
11064;SDS011;5585;52.530;7.320;2023-10-09T07:59:33;19.98;;;14.07;;
11064;SDS011;5585;52.530;7.320;2023-10-09T08:02:06;17.80;;;12.90;;
11064;SDS011;5585;52.530;7.320;2023-10-09T08:04:39;20.70;;;14.80;;
11064;SDS011;5585;52.530;7.320;2023-10-09T08:07:15;16.92;;;13.23;;
11064;SDS011;5585;52.530;7.320;2023-10-09T08:09:50;18.48;;;13.00;;
11064;SDS011;5585;52.530;7.320;2023-10-09T08:12:36;20.77;;;14.73;;
11064;SDS011;5585;52.530;7.320;2023-10-09T08:15:23;21.02;;;15.02;;
11064;SDS011;5585;52.530;7.320;2023-10-09T08:17:52;20.02;;;14.07;;
11064;SDS011;5585;52.530;7.320;2023-10-09T08:20:22;19.48;;;13.70;;
11064;SDS011;5585;52.530;7.320;2023-10-09T08:22:51;22.70;;;15.40;;
11064;SDS011;5585;52.530;7.320;2023-10-09T08:25:20;19.42;;;13.95;;
11064;SDS011;5585;52.530;7.320;2023-10-09T08:27:53;22.90;;;16.20;;
11064;SDS011;5585;52.530;7.320;2023-10-09T08:30:24;19.40;;;13.82;;
11064;SDS011;5585;52.530;7.320;2023-10-09T08:33:06;19.20;;;14.80;;
11064;SDS011;5585;52.530;7.320;2023-10-09T08:35:48;16.90;;;14.27;;
11064;SDS011;5585;52.530;7.320;2023-10-09T08:38:15;17.70;;;13.35;;
11064;SDS011;5585;52.530;7.320;2023-10-09T08:40:48;16.15;;;12.88;;
11064;SDS011;5585;52.530;7.320;2023-10-09T08:43:16;15.95;;;12.65;;
11064;SDS011;5585;52.530;7.320;2023-10-09T08:45:44;15.52;;;12.32;;
11064;SDS011;5585;52.530;7.320;2023-10-09T08:48:11;20.80;;;13.70;;
11064;SDS011;5585;52.530;7.320;2023-10-09T08:50:40;17.00;;;14.02;;
11064;SDS011;5585;52.530;7.320;2023-10-09T08:53:09;15.93;;;13.00;;
11064;SDS011;5585;52.530;7.320;2023-10-09T08:55:36;18.65;;;14.80;;
11064;SDS011;5585;52.530;7.320;2023-10-09T08:58:03;17.33;;;12.63;;
11064;SDS011;5585;52.530;7.320;2023-10-09T09:00:35;17.48;;;12.95;;
11064;SDS011;5585;52.530;7.320;2023-10-09T09:03:02;17.38;;;12.90;;
11064;SDS011;5585;52.530;7.320;2023-10-09T09:05:29;17.67;;;12.50;;
11064;SDS011;5585;52.530;7.320;2023-10-09T09:07:55;19.65;;;14.57;;
11064;SDS011;5585;52.530;7.320;2023-10-09T09:10:28;17.50;;;12.35;;
11064;SDS011;5585;52.530;7.320;2023-10-09T09:13:00;19.27;;;13.52;;
11064;SDS011;5585;52.530;7.320;2023-10-09T09:15:29;15.90;;;12.95;;
11064;SDS011;5585;52.530;7.320;2023-10-09T09:18:03;17.33;;;12.60;;
11064;SDS011;5585;52.530;7.320;2023-10-09T09:20:31;17.20;;;13.07;;
11064;SDS011;5585;52.530;7.320;2023-10-09T09:23:02;16.02;;;12.40;;
11064;SDS011;5585;52.530;7.320;2023-10-09T09:25:40;18.52;;;13.95;;
11064;SDS011;5585;52.530;7.320;2023-10-09T09:28:09;14.70;;;11.95;;
11064;SDS011;5585;52.530;7.320;2023-10-09T09:30:38;19.13;;;12.65;;
11064;SDS011;5585;52.530;7.320;2023-10-09T09:33:18;17.92;;;13.43;;
11064;SDS011;5585;52.530;7.320;2023-10-09T09:35:58;15.48;;;12.55;;
11064;SDS011;5585;52.530;7.320;2023-10-09T09:38:25;18.77;;;13.32;;
11064;SDS011;5585;52.530;7.320;2023-10-09T09:40:55;17.50;;;13.07;;
11064;SDS011;5585;52.530;7.320;2023-10-09T09:43:22;17.17;;;12.55;;
11064;SDS011;5585;52.530;7.320;2023-10-09T09:45:50;17.98;;;13.02;;
11064;SDS011;5585;52.530;7.320;2023-10-09T09:48:21;18.90;;;13.50;;
11064;SDS011;5585;52.530;7.320;2023-10-09T09:50:49;14.98;;;12.25;;
11064;SDS011;5585;52.530;7.320;2023-10-09T09:53:19;16.00;;;12.48;;
11064;SDS011;5585;52.530;7.320;2023-10-09T09:55:49;15.65;;;12.27;;
11064;SDS011;5585;52.530;7.320;2023-10-09T09:58:22;14.63;;;11.68;;
11064;SDS011;5585;52.530;7.320;2023-10-09T10:00:50;17.25;;;13.75;;
11064;SDS011;5585;52.530;7.320;2023-10-09T10:03:19;16.63;;;12.75;;
11064;SDS011;5585;52.530;7.320;2023-10-09T10:05:46;16.40;;;12.50;;
11064;SDS011;5585;52.530;7.320;2023-10-09T10:08:14;18.23;;;12.52;;
11064;SDS011;5585;52.530;7.320;2023-10-09T10:10:45;16.80;;;12.90;;
11064;SDS011;5585;52.530;7.320;2023-10-09T10:13:15;17.52;;;12.75;;
11064;SDS011;5585;52.530;7.320;2023-10-09T10:18:56;17.77;;;13.40;;
11064;SDS011;5585;52.530;7.320;2023-10-09T10:21:32;17.50;;;13.32;;
11064;SDS011;5585;52.530;7.320;2023-10-09T10:29:34;15.52;;;11.43;;
11064;SDS011;5585;52.530;7.320;2023-10-09T10:32:03;14.73;;;10.88;;
11064;SDS011;5585;52.530;7.320;2023-10-09T10:37:16;15.20;;;11.23;;
11064;SDS011;5585;52.530;7.320;2023-10-09T10:39:49;16.05;;;11.50;;
11064;SDS011;5585;52.530;7.320;2023-10-09T10:42:15;16.52;;;10.93;;
11064;SDS011;5585;52.530;7.320;2023-10-09T10:44:59;12.63;;;10.13;;
11064;SDS011;5585;52.530;7.320;2023-10-09T10:47:27;15.52;;;10.82;;
11064;SDS011;5585;52.530;7.320;2023-10-09T10:49:59;11.30;;;9.98;;
11064;SDS011;5585;52.530;7.320;2023-10-09T10:52:37;16.77;;;10.95;;
11064;SDS011;5585;52.530;7.320;2023-10-09T10:55:11;14.95;;;10.68;;
11064;SDS011;5585;52.530;7.320;2023-10-09T10:58:02;15.32;;;10.32;;
11064;SDS011;5585;52.530;7.320;2023-10-09T11:00:35;13.20;;;9.75;;
11064;SDS011;5585;52.530;7.320;2023-10-09T11:03:19;16.63;;;9.70;;
11064;SDS011;5585;52.530;7.320;2023-10-09T11:05:54;13.75;;;10.48;;
11064;SDS011;5585;52.530;7.320;2023-10-09T11:08:25;11.50;;;10.10;;
11064;SDS011;5585;52.530;7.320;2023-10-09T11:11:09;13.88;;;10.00;;
11064;SDS011;5585;52.530;7.320;2023-10-09T11:13:40;17.17;;;11.50;;
11064;SDS011;5585;52.530;7.320;2023-10-09T11:16:19;15.60;;;10.95;;
11064;SDS011;5585;52.530;7.320;2023-10-09T11:18:54;15.88;;;11.18;;
11064;SDS011;5585;52.530;7.320;2023-10-09T11:21:22;17.85;;;12.10;;
11064;SDS011;5585;52.530;7.320;2023-10-09T11:24:07;12.02;;;8.88;;
11064;SDS011;5585;52.530;7.320;2023-10-09T11:26:53;13.65;;;9.38;;
11064;SDS011;5585;52.530;7.320;2023-10-09T11:29:22;10.65;;;8.80;;
11064;SDS011;5585;52.530;7.320;2023-10-09T11:32:01;13.02;;;9.70;;
11064;SDS011;5585;52.530;7.320;2023-10-09T11:34:30;11.98;;;8.93;;
11064;SDS011;5585;52.530;7.320;2023-10-09T11:36:57;14.93;;;9.52;;
11064;SDS011;5585;52.530;7.320;2023-10-09T11:39:25;13.82;;;8.82;;
11064;SDS011;5585;52.530;7.320;2023-10-09T11:42:03;10.77;;;8.95;;
11064;SDS011;5585;52.530;7.320;2023-10-09T11:44:39;12.45;;;8.10;;
11064;SDS011;5585;52.530;7.320;2023-10-09T11:47:07;13.20;;;8.43;;
11064;SDS011;5585;52.530;7.320;2023-10-09T11:49:58;11.00;;;7.30;;
11064;SDS011;5585;52.530;7.320;2023-10-09T11:52:55;12.43;;;8.60;;
11064;SDS011;5585;52.530;7.320;2023-10-09T11:55:35;9.95;;;7.28;;
11064;SDS011;5585;52.530;7.320;2023-10-09T11:58:01;9.02;;;6.38;;
11064;SDS011;5585;52.530;7.320;2023-10-09T12:00:30;8.68;;;6.40;;
11064;SDS011;5585;52.530;7.320;2023-10-09T12:03:07;14.55;;;7.97;;
11064;SDS011;5585;52.530;7.320;2023-10-09T12:05:34;8.32;;;5.88;;
11064;SDS011;5585;52.530;7.320;2023-10-09T12:08:01;11.32;;;6.78;;
11064;SDS011;5585;52.530;7.320;2023-10-09T12:10:28;10.38;;;6.50;;
11064;SDS011;5585;52.530;7.320;2023-10-09T12:12:56;12.57;;;6.88;;
11064;SDS011;5585;52.530;7.320;2023-10-09T12:15:23;9.40;;;5.68;;
11064;SDS011;5585;52.530;7.320;2023-10-09T12:17:50;10.32;;;6.13;;
11064;SDS011;5585;52.530;7.320;2023-10-09T12:20:18;7.93;;;6.10;;
11064;SDS011;5585;52.530;7.320;2023-10-09T12:22:56;11.43;;;6.40;;
11064;SDS011;5585;52.530;7.320;2023-10-09T12:25:24;7.07;;;5.43;;
11064;SDS011;5585;52.530;7.320;2023-10-09T12:27:50;8.55;;;5.30;;
11064;SDS011;5585;52.530;7.320;2023-10-09T12:30:20;10.32;;;4.90;;
11064;SDS011;5585;52.530;7.320;2023-10-09T12:32:52;6.70;;;4.43;;
11064;SDS011;5585;52.530;7.320;2023-10-09T12:35:18;7.47;;;4.50;;
11064;SDS011;5585;52.530;7.320;2023-10-09T12:37:45;9.13;;;5.72;;
11064;SDS011;5585;52.530;7.320;2023-10-09T12:40:12;9.75;;;5.32;;
11064;SDS011;5585;52.530;7.320;2023-10-09T12:42:38;10.25;;;5.47;;
11064;SDS011;5585;52.530;7.320;2023-10-09T12:45:06;7.18;;;4.30;;
11064;SDS011;5585;52.530;7.320;2023-10-09T12:47:36;6.78;;;4.75;;
11064;SDS011;5585;52.530;7.320;2023-10-09T12:50:03;8.65;;;4.88;;
11064;SDS011;5585;52.530;7.320;2023-10-09T12:52:35;9.43;;;5.25;;
11064;SDS011;5585;52.530;7.320;2023-10-09T12:55:02;9.20;;;5.13;;
11064;SDS011;5585;52.530;7.320;2023-10-09T12:57:32;9.50;;;5.40;;
11064;SDS011;5585;52.530;7.320;2023-10-09T12:59:58;9.52;;;5.25;;
11064;SDS011;5585;52.530;7.320;2023-10-09T13:02:24;6.68;;;5.07;;
11064;SDS011;5585;52.530;7.320;2023-10-09T13:04:56;8.80;;;5.18;;
11064;SDS011;5585;52.530;7.320;2023-10-09T13:07:22;6.75;;;4.60;;
11064;SDS011;5585;52.530;7.320;2023-10-09T13:09:49;7.85;;;5.03;;
11064;SDS011;5585;52.530;7.320;2023-10-09T13:12:33;8.93;;;5.35;;
11064;SDS011;5585;52.530;7.320;2023-10-09T13:15:03;8.23;;;5.28;;
11064;SDS011;5585;52.530;7.320;2023-10-09T13:17:34;8.88;;;5.05;;
11064;SDS011;5585;52.530;7.320;2023-10-09T13:20:03;11.18;;;5.78;;
11064;SDS011;5585;52.530;7.320;2023-10-09T13:22:37;7.65;;;5.03;;
11064;SDS011;5585;52.530;7.320;2023-10-09T13:25:04;7.13;;;5.03;;
11064;SDS011;5585;52.530;7.320;2023-10-09T13:27:31;8.10;;;4.95;;
11064;SDS011;5585;52.530;7.320;2023-10-09T13:29:59;6.90;;;4.95;;
11064;SDS011;5585;52.530;7.320;2023-10-09T13:32:30;9.73;;;5.03;;
11064;SDS011;5585;52.530;7.320;2023-10-09T13:34:59;7.40;;;4.55;;
11064;SDS011;5585;52.530;7.320;2023-10-09T13:37:29;8.30;;;4.70;;
11064;SDS011;5585;52.530;7.320;2023-10-09T13:39:57;7.18;;;4.78;;
11064;SDS011;5585;52.530;7.320;2023-10-09T13:42:24;6.13;;;4.55;;
11064;SDS011;5585;52.530;7.320;2023-10-09T13:44:51;7.68;;;4.63;;
11064;SDS011;5585;52.530;7.320;2023-10-09T13:47:19;7.25;;;4.43;;
11064;SDS011;5585;52.530;7.320;2023-10-09T13:49:46;5.40;;;4.45;;
11064;SDS011;5585;52.530;7.320;2023-10-09T13:52:15;6.18;;;4.57;;
11064;SDS011;5585;52.530;7.320;2023-10-09T13:54:44;8.95;;;4.78;;
11064;SDS011;5585;52.530;7.320;2023-10-09T13:57:14;7.07;;;5.05;;
11064;SDS011;5585;52.530;7.320;2023-10-09T13:59:41;8.15;;;4.93;;
11064;SDS011;5585;52.530;7.320;2023-10-09T14:02:14;6.47;;;4.53;;
11064;SDS011;5585;52.530;7.320;2023-10-09T14:04:44;6.57;;;4.47;;
11064;SDS011;5585;52.530;7.320;2023-10-09T14:07:10;6.90;;;4.63;;
11064;SDS011;5585;52.530;7.320;2023-10-09T14:09:41;7.53;;;4.65;;
11064;SDS011;5585;52.530;7.320;2023-10-09T14:12:21;6.90;;;4.53;;
11064;SDS011;5585;52.530;7.320;2023-10-09T14:14:49;7.22;;;4.50;;
11064;SDS011;5585;52.530;7.320;2023-10-09T14:17:20;6.18;;;4.40;;
11064;SDS011;5585;52.530;7.320;2023-10-09T14:19:50;8.32;;;4.70;;
11064;SDS011;5585;52.530;7.320;2023-10-09T14:22:18;9.57;;;5.75;;
11064;SDS011;5585;52.530;7.320;2023-10-09T14:24:45;6.70;;;4.30;;
11064;SDS011;5585;52.530;7.320;2023-10-09T14:27:12;5.00;;;4.10;;
11064;SDS011;5585;52.530;7.320;2023-10-09T14:29:44;5.97;;;3.92;;
11064;SDS011;5585;52.530;7.320;2023-10-09T14:32:10;8.95;;;4.70;;
11064;SDS011;5585;52.530;7.320;2023-10-09T14:34:38;7.57;;;3.65;;
11064;SDS011;5585;52.530;7.320;2023-10-09T14:37:08;6.00;;;3.75;;
11064;SDS011;5585;52.530;7.320;2023-10-09T14:39:37;7.05;;;3.88;;
11064;SDS011;5585;52.530;7.320;2023-10-09T14:42:03;5.32;;;3.90;;
11064;SDS011;5585;52.530;7.320;2023-10-09T14:44:34;6.35;;;3.85;;
11064;SDS011;5585;52.530;7.320;2023-10-09T14:47:04;6.78;;;3.70;;
11064;SDS011;5585;52.530;7.320;2023-10-09T14:49:31;8.57;;;4.00;;
11064;SDS011;5585;52.530;7.320;2023-10-09T14:52:02;6.30;;;3.55;;
11064;SDS011;5585;52.530;7.320;2023-10-09T14:54:28;6.13;;;3.83;;
11064;SDS011;5585;52.530;7.320;2023-10-09T14:56:55;4.40;;;3.67;;
11064;SDS011;5585;52.530;7.320;2023-10-09T14:59:21;5.63;;;3.78;;
11064;SDS011;5585;52.530;7.320;2023-10-09T15:01:48;7.15;;;4.32;;
11064;SDS011;5585;52.530;7.320;2023-10-09T15:04:16;7.07;;;3.95;;
11064;SDS011;5585;52.530;7.320;2023-10-09T15:06:43;5.60;;;3.60;;
11064;SDS011;5585;52.530;7.320;2023-10-09T15:09:09;7.03;;;3.53;;
11064;SDS011;5585;52.530;7.320;2023-10-09T15:11:47;6.10;;;3.88;;
11064;SDS011;5585;52.530;7.320;2023-10-09T15:14:13;7.57;;;3.60;;
11064;SDS011;5585;52.530;7.320;2023-10-09T15:16:40;6.45;;;2.90;;
11064;SDS011;5585;52.530;7.320;2023-10-09T15:19:08;6.57;;;3.55;;
11064;SDS011;5585;52.530;7.320;2023-10-09T15:21:36;5.20;;;2.88;;
11064;SDS011;5585;52.530;7.320;2023-10-09T15:24:09;4.53;;;2.80;;
11064;SDS011;5585;52.530;7.320;2023-10-09T15:26:37;6.25;;;3.22;;